Time;durP1;ratioP1;P1;durP2;ratioP2;P2;SDS_P1;SDS_P2;PMS_P1;PMS_P2;Temp;Humidity;BMP_temperature;BMP_pressure;BME280_temperature;BME280_humidity;BME280_pressure;Samples;Min_cycle;Max_cycle;Signal;HPM_P1;HPM_P2
2023/09/10 00:00:37;;;;;;;1.47;0.80;;;;;;;16.85;100.00;101740.00;2081244;28;21069;-68
2023/09/10 00:01:38;;;;;;;1.03;0.77;;;;;;;16.84;100.00;101732.81;2081559;28;20228;-68
2023/09/10 00:02:38;;;;;;;1.10;0.90;;;;;;;16.83;100.00;101736.09;2081616;28;20701;-68
2023/09/10 00:03:39;;;;;;;4.00;1.00;;;;;;;16.78;100.00;101740.22;2081909;28;20260;-68
2023/09/10 00:04:39;;;;;;;1.83;1.13;;;;;;;16.73;100.00;101743.56;2081799;28;20199;-68
2023/09/10 00:05:39;;;;;;;1.83;1.10;;;;;;;16.60;100.00;101726.78;2081341;28;20185;-68
2023/09/10 00:06:41;;;;;;;3.13;1.07;;;;;;;16.36;100.00;101694.75;2076485;28;20283;-68
2023/09/10 00:07:41;;;;;;;1.50;0.73;;;;;;;16.73;100.00;101748.41;2073485;28;20189;-68
2023/09/10 00:08:41;;;;;;;1.60;1.00;;;;;;;16.63;100.00;101739.88;2076647;28;20944;-68
2023/09/10 00:09:42;;;;;;;1.50;0.93;;;;;;;16.59;100.00;101756.00;2079646;28;20181;-68
2023/09/10 00:10:42;;;;;;;1.53;0.90;;;;;;;16.48;100.00;101769.53;2073890;28;20255;-68
2023/09/10 00:11:43;;;;;;;1.70;0.97;;;;;;;16.30;100.00;101768.47;2081861;28;20184;-68
2023/09/10 00:12:43;;;;;;;1.23;0.90;;;;;;;16.46;100.00;101793.59;2073939;28;20247;-68
2023/09/10 00:13:44;;;;;;;2.10;1.10;;;;;;;16.55;100.00;101788.13;2073453;28;20197;-68
2023/09/10 00:14:44;;;;;;;1.97;0.80;;;;;;;16.59;100.00;101778.38;2073576;28;20670;-68
2023/09/10 00:15:45;;;;;;;2.93;0.90;;;;;;;16.63;100.00;101769.09;2077597;28;20581;-68
2023/09/10 00:16:45;;;;;;;1.63;0.93;;;;;;;16.67;100.00;101773.34;2078584;28;20177;-68
2023/09/10 00:17:45;;;;;;;3.53;1.00;;;;;;;16.68;100.00;101795.31;2073519;28;20228;-68
2023/09/10 00:18:46;;;;;;;3.13;1.13;;;;;;;16.39;100.00;101760.25;2074194;28;20182;-68
2023/09/10 00:19:46;;;;;;;2.43;1.10;;;;;;;16.73;100.00;101810.75;2080302;28;20293;-68
2023/09/10 00:20:47;;;;;;;1.10;0.70;;;;;;;16.76;100.00;101804.28;2080136;28;20192;-68
2023/09/10 00:21:48;;;;;;;1.33;1.10;;;;;;;16.83;100.00;101784.44;2081454;28;20181;-68
2023/09/10 00:22:48;;;;;;;1.90;0.97;;;;;;;16.89;100.00;101786.25;2081712;28;20737;-68
2023/09/10 00:23:49;;;;;;;1.80;1.30;;;;;;;16.94;100.00;101787.69;2081444;28;20270;-68
2023/09/10 00:24:49;;;;;;;2.20;1.23;;;;;;;17.00;100.00;101791.53;2081457;28;20200;-68
2023/09/10 00:25:49;;;;;;;2.13;1.30;;;;;;;17.04;100.00;101794.97;2081344;28;20173;-68
2023/09/10 00:26:50;;;;;;;1.80;1.20;;;;;;;17.08;100.00;101798.47;2080180;28;20203;-68
2023/09/10 00:27:50;;;;;;;3.80;1.53;;;;;;;16.86;100.00;101761.16;2073471;28;20262;-68
2023/09/10 00:28:51;;;;;;;3.20;1.47;;;;;;;17.12;100.00;101791.50;2081557;28;20204;-68
2023/09/10 00:29:52;;;;;;;2.10;1.20;;;;;;;17.17;100.00;101790.94;2081333;28;20185;-68
2023/09/10 00:30:53;;;;;;;4.23;1.07;;;;;;;17.22;100.00;101793.16;2080473;28;20988;-68
2023/09/10 00:31:54;;;;;;;2.03;1.23;;;;;;;17.28;100.00;101791.41;2080816;28;20188;-68
2023/09/10 00:32:55;;;;;;;2.70;1.37;;;;;;;17.32;100.00;101785.66;2081669;28;20445;-68
2023/09/10 00:33:55;;;;;;;5.07;1.50;;;;;;;17.31;100.00;101784.88;2080387;28;20173;-68
2023/09/10 00:34:56;;;;;;;1.93;1.20;;;;;;;17.36;100.00;101794.75;2080811;28;20261;-68
2023/09/10 00:35:56;;;;;;;2.37;1.37;;;;;;;17.36;100.00;101791.94;2073165;28;20668;-68
2023/09/10 00:36:57;;;;;;;1.77;1.27;;;;;;;17.36;100.00;101789.91;2081599;28;20168;-68
2023/09/10 00:37:58;;;;;;;3.17;1.37;;;;;;;17.41;100.00;101785.81;2081549;28;20220;-68
2023/09/10 00:38:58;;;;;;;2.33;1.40;;;;;;;17.44;100.00;101784.13;2081402;28;20563;-68
2023/09/10 00:39:59;;;;;;;2.70;1.20;;;;;;;17.42;100.00;101785.31;2081575;28;20451;-68
2023/09/10 00:40:59;;;;;;;2.13;1.13;;;;;;;17.44;100.00;101781.31;2081199;28;20599;-68
2023/09/10 00:41:59;;;;;;;2.37;1.30;;;;;;;17.47;100.00;101791.59;2081360;28;20703;-68
2023/09/10 00:43:00;;;;;;;1.87;0.90;;;;;;;17.49;100.00;101789.91;2081280;28;20555;-68
2023/09/10 00:44:00;;;;;;;3.07;1.20;;;;;;;16.95;100.00;101700.44;2081297;28;20643;-68
2023/09/10 00:45:01;;;;;;;4.37;1.80;;;;;;;17.08;100.00;101725.63;2081435;28;20579;-68
2023/09/10 00:46:02;;;;;;;3.43;1.50;;;;;;;17.51;100.00;101792.28;2081395;28;20214;-68
2023/09/10 00:47:06;;;;;;;1.60;1.17;;;;;;;17.16;100.00;101726.97;2075297;28;20193;-68
2023/09/10 00:48:06;;;;;;;6.03;1.40;;;;;;;16.65;100.00;101650.66;2078351;28;20952;-68
2023/09/10 00:49:07;;;;;;;4.27;1.77;;;;;;;17.52;100.00;101785.44;2081177;28;20831;-68
2023/09/10 00:50:11;;;;;;;4.93;1.47;;;;;;;17.52;100.00;101786.22;2081302;28;20188;-68
2023/09/10 00:51:13;;;;;;;3.00;1.10;;;;;;;17.48;100.00;101779.94;2080824;28;20620;-68
2023/09/10 00:52:13;;;;;;;8.10;1.73;;;;;;;17.50;100.00;101783.06;2081263;28;20420;-68
2023/09/10 00:53:14;;;;;;;2.13;1.17;;;;;;;16.98;100.00;101712.00;2081254;28;20461;-68
2023/09/10 00:54:16;;;;;;;2.03;1.20;;;;;;;17.47;100.00;101786.78;2081578;28;20182;-68
2023/09/10 00:55:18;;;;;;;1.67;1.00;;;;;;;17.41;100.00;101791.41;2081400;28;20195;-68
2023/09/10 00:56:20;;;;;;;2.83;1.13;;;;;;;17.35;100.00;101788.34;2081178;28;20448;-69
2023/09/10 00:57:22;;;;;;;2.23;1.10;;;;;;;17.28;100.00;101790.59;2081384;28;20451;-68
2023/09/10 00:58:23;;;;;;;1.60;1.07;;;;;;;17.23;100.00;101791.16;2081276;28;20446;-68
2023/09/10 00:59:23;;;;;;;0.80;0.80;;;;;;;16.54;100.00;101685.81;2077698;28;20520;-68
2023/09/10 01:00:26;;;;;;;1.77;1.10;;;;;;;17.21;100.00;101793.66;2075317;28;20204;-68
2023/09/10 01:01:26;;;;;;;1.63;1.10;;;;;;;17.13;100.00;101790.28;2079587;28;20595;-68
2023/09/10 01:02:27;;;;;;;1.70;1.00;;;;;;;17.00;100.00;101783.13;2073012;28;20408;-68
2023/09/10 01:03:30;;;;;;;1.67;0.90;;;;;;;17.03;100.00;101793.41;2072403;28;20186;-68
2023/09/10 01:04:31;;;;;;;1.60;0.90;;;;;;;16.99;100.00;101796.34;2072975;28;20490;-68
2023/09/10 01:05:32;;;;;;;1.50;1.20;;;;;;;16.97;100.00;101792.41;2073110;28;20494;-68
2023/09/10 01:06:32;;;;;;;3.47;1.10;;;;;;;16.29;100.00;101691.38;2078943;28;20250;-68
2023/09/10 01:07:34;;;;;;;3.10;1.00;;;;;;;16.89;100.00;101791.84;2076616;28;20433;-68
2023/09/10 01:08:34;;;;;;;2.30;1.20;;;;;;;16.85;100.00;101785.56;2076004;28;20547;-68
2023/09/10 01:09:35;;;;;;;2.23;1.20;;;;;;;16.79;100.00;101786.56;2081093;28;20443;-68
2023/09/10 01:11:09;;;;;;;2.40;1.30;;;;;;;16.82;100.00;101791.28;2080750;28;20187;-68
2023/09/10 01:12:20;;;;;;;2.80;1.07;;;;;;;16.77;100.00;101786.25;2081112;28;20217;-68
2023/09/10 01:13:50;;;;;;;2.30;1.20;;;;;;;16.69;100.00;101793.28;2081265;28;20812;-68
2023/09/10 01:15:03;;;;;;;1.30;0.90;;;;;;;16.66;100.00;101783.75;2080251;28;20610;-68
2023/09/10 01:16:16;;;;;;;1.87;1.03;;;;;;;16.64;100.00;101788.25;2073139;28;20423;-68
2023/09/10 01:17:25;;;;;;;1.20;0.93;;;;;;;16.57;100.00;101787.69;2072172;28;20423;-68
2023/09/10 01:18:42;;;;;;;2.40;1.20;;;;;;;16.54;100.00;101792.94;2072779;28;20722;-68
2023/09/10 01:19:51;;;;;;;9.37;1.33;;;;;;;16.52;100.00;101794.59;2072815;28;20404;-68
2023/09/10 01:21:19;;;;;;;1.03;0.93;;;;;;;16.48;100.00;101789.13;2073221;28;20518;-68
2023/09/10 01:22:29;;;;;;;1.63;1.07;;;;;;;16.36;100.00;101784.25;2077858;28;20494;-68
2023/09/10 01:23:48;;;;;;;1.53;1.27;;;;;;;16.31;100.00;101784.00;2076327;28;20473;-68
2023/09/10 01:24:50;;;;;;;2.70;1.33;;;;;;;16.23;100.00;101783.44;2080384;28;20442;-68
2023/09/10 01:25:51;;;;;;;2.43;1.20;;;;;;;16.21;100.00;101783.09;2080242;28;20433;-68
2023/09/10 01:26:59;;;;;;;3.03;1.10;;;;;;;16.20;100.00;101789.94;2078660;28;20423;-68
2023/09/10 01:28:03;;;;;;;1.33;0.80;;;;;;;16.15;100.00;101784.88;2075206;28;20189;-68
2023/09/10 01:29:04;;;;;;;2.13;1.30;;;;;;;16.14;100.00;101783.28;2079194;28;20870;-68
2023/09/10 01:30:09;;;;;;;2.23;1.20;;;;;;;16.12;100.00;101784.94;2073479;28;20424;-68
2023/09/10 01:31:09;;;;;;;3.20;1.23;;;;;;;15.80;100.00;101745.91;2080508;28;20168;-68
2023/09/10 01:32:31;;;;;;;1.80;1.10;;;;;;;16.00;100.00;101792.09;2081233;28;20465;-68
2023/09/10 01:33:41;;;;;;;2.73;0.90;;;;;;;15.26;100.00;101678.69;2072774;28;20175;-68
2023/09/10 01:34:47;;;;;;;1.60;1.00;;;;;;;15.81;100.00;101772.63;2072897;28;20498;-68
2023/09/10 01:36:14;;;;;;;1.30;1.00;;;;;;;15.79;100.00;101786.28;2072952;28;20504;-68
2023/09/10 01:37:25;;;;;;;1.87;1.20;;;;;;;15.72;100.00;101790.03;2071714;28;20450;-68
2023/09/10 01:38:35;;;;;;;2.87;1.03;;;;;;;15.65;100.00;101781.06;2072852;28;20502;-68
2023/09/10 01:39:40;;;;;;;1.63;1.00;;;;;;;15.65;100.00;101784.66;2076016;28;20435;-68
2023/09/10 01:40:46;;;;;;;2.90;1.20;;;;;;;15.63;100.00;101783.53;2078159;28;20484;-68
2023/09/10 01:41:49;;;;;;;2.17;1.10;;;;;;;15.47;100.00;101773.13;2074919;28;20481;-68
2023/09/10 01:42:50;;;;;;;2.03;1.10;;;;;;;15.53;100.00;101790.16;2079704;28;20517;-67
2023/09/10 01:43:51;;;;;;;1.60;1.03;;;;;;;15.47;100.00;101786.34;2072793;28;20424;-67
2023/09/10 01:44:53;;;;;;;1.90;0.87;;;;;;;15.07;100.00;101720.69;2081314;28;20716;-67
2023/09/10 01:45:53;;;;;;;1.77;1.00;;;;;;;15.44;100.00;101790.78;2072465;28;20439;-67
2023/09/10 01:46:55;;;;;;;1.93;1.23;;;;;;;15.38;100.00;101791.75;2079399;28;20478;-67
2023/09/10 01:47:56;;;;;;;1.90;1.10;;;;;;;15.35;100.00;101787.03;2075441;28;20186;-68
2023/09/10 01:48:56;;;;;;;2.17;1.37;;;;;;;15.32;100.00;101791.44;2077075;28;20950;-68
2023/09/10 01:49:57;;;;;;;2.33;1.30;;;;;;;15.06;100.00;101767.34;2077551;28;20988;-68
2023/09/10 01:50:58;;;;;;;1.23;1.00;;;;;;;14.69;100.00;101706.47;2074272;28;20181;-68
2023/09/10 01:51:58;;;;;;;1.70;1.10;;;;;;;15.25;100.00;101797.22;2080874;28;20411;-67
2023/09/10 01:52:59;;;;;;;1.17;0.90;;;;;;;15.24;100.00;101798.44;2081074;28;20185;-68
2023/09/10 01:53:59;;;;;;;2.17;1.13;;;;;;;15.07;100.00;101779.31;2080931;28;20196;-68
2023/09/10 01:55:00;;;;;;;1.40;0.90;;;;;;;15.17;100.00;101806.97;2073995;28;20220;-68
2023/09/10 01:56:01;;;;;;;2.00;1.10;;;;;;;14.83;100.00;101761.16;2079845;28;20611;-67
2023/09/10 01:57:02;;;;;;;2.57;1.37;;;;;;;15.10;100.00;101804.34;2081119;28;20427;-68
2023/09/10 01:58:02;;;;;;;1.67;0.87;;;;;;;15.11;100.00;101805.16;2073090;28;20192;-67
2023/09/10 01:59:03;;;;;;;1.77;1.00;;;;;;;15.12;100.00;101803.94;2079561;28;20189;-68
2023/09/10 02:00:07;;;;;;;2.27;1.20;;;;;;;15.14;100.00;101810.66;2080585;28;20194;-68
2023/09/10 02:01:08;;;;;;;1.57;1.00;;;;;;;15.10;100.00;101807.16;2080546;28;20266;-68
2023/09/10 02:02:08;;;;;;;2.00;1.00;;;;;;;15.13;100.00;101805.50;2080767;28;20447;-67
2023/09/10 02:03:09;;;;;;;1.13;0.70;;;;;;;15.14;100.00;101813.44;2080828;28;20580;-67
2023/09/10 02:04:09;;;;;;;1.87;1.00;;;;;;;15.16;100.00;101802.63;2079345;28;20613;-67
2023/09/10 02:05:09;;;;;;;1.77;1.17;;;;;;;15.17;100.00;101801.38;2072870;28;20169;-67
2023/09/10 02:06:10;;;;;;;2.57;1.10;;;;;;;14.39;100.00;101670.50;2081038;28;20259;-67
2023/09/10 02:07:10;;;;;;;2.27;1.30;;;;;;;15.22;100.00;101797.31;2080741;28;20675;-67
2023/09/10 02:08:11;;;;;;;2.47;1.27;;;;;;;15.25;100.00;101800.00;2080961;28;20191;-67
2023/09/10 02:09:11;;;;;;;2.40;1.37;;;;;;;15.19;100.00;101789.78;2080728;28;20196;-68
2023/09/10 02:10:12;;;;;;;2.93;1.10;;;;;;;15.27;100.00;101802.38;2080827;28;20195;-67
2023/09/10 02:11:12;;;;;;;1.77;1.20;;;;;;;15.27;100.00;101799.56;2080665;28;20181;-68
2023/09/10 02:12:12;;;;;;;1.57;1.03;;;;;;;15.25;100.00;101811.19;2080056;28;20176;-68
2023/09/10 02:13:13;;;;;;;2.20;0.90;;;;;;;15.28;100.00;101801.94;2080240;28;20181;-68
2023/09/10 02:14:13;;;;;;;1.83;1.30;;;;;;;15.29;100.00;101806.31;2080265;28;20206;-67
2023/09/10 02:15:14;;;;;;;1.43;1.00;;;;;;;15.34;100.00;101799.44;2080479;28;20197;-68
2023/09/10 02:16:14;;;;;;;1.87;1.30;;;;;;;15.38;100.00;101802.91;2074509;28;20182;-68
2023/09/10 02:17:14;;;;;;;1.83;1.27;;;;;;;15.40;100.00;101809.66;2077580;28;20649;-68
2023/09/10 02:18:15;;;;;;;1.43;1.00;;;;;;;15.40;100.00;101808.84;2076934;28;20597;-68
2023/09/10 02:19:15;;;;;;;2.80;1.40;;;;;;;15.38;100.00;101811.31;2072685;28;20222;-68
2023/09/10 02:20:16;;;;;;;2.07;1.20;;;;;;;15.37;100.00;101813.28;2072355;28;20259;-68
2023/09/10 02:21:16;;;;;;;3.00;1.03;;;;;;;15.37;100.00;101815.31;2076548;28;20205;-68
2023/09/10 02:22:17;;;;;;;2.57;1.23;;;;;;;15.39;100.00;101813.66;2072561;28;20174;-68
2023/09/10 02:23:17;;;;;;;2.33;1.07;;;;;;;15.41;100.00;101816.00;2080076;28;20223;-68
2023/09/10 02:24:17;;;;;;;2.20;1.13;;;;;;;15.39;100.00;101804.50;2080679;28;20355;-68
2023/09/10 02:25:18;;;;;;;2.93;1.33;;;;;;;15.38;100.00;101803.69;2080809;28;20203;-68
2023/09/10 02:26:18;;;;;;;2.20;1.17;;;;;;;15.37;100.00;101802.13;2076776;28;20580;-68
2023/09/10 02:27:18;;;;;;;3.37;1.10;;;;;;;15.41;100.00;101807.63;2072756;28;20177;-68
2023/09/10 02:28:23;;;;;;;3.27;1.60;;;;;;;15.43;100.00;101816.38;2072350;28;20168;-67
2023/09/10 02:29:23;;;;;;;1.57;1.13;;;;;;;15.40;100.00;101815.22;2072553;28;20667;-67
2023/09/10 02:30:24;;;;;;;1.50;0.90;;;;;;;15.47;100.00;101817.06;2072295;28;20788;-67
2023/09/10 02:31:25;;;;;;;2.90;1.13;;;;;;;15.14;100.00;101770.75;2072623;28;20336;-68
2023/09/10 02:32:25;;;;;;;1.83;1.10;;;;;;;15.45;100.00;101823.09;2072719;28;20478;-67
2023/09/10 02:33:26;;;;;;;2.80;1.10;;;;;;;15.46;100.00;101816.28;2072708;28;20721;-67
2023/09/10 02:34:26;;;;;;;2.40;1.10;;;;;;;15.48;100.00;101818.63;2072532;28;20681;-67
2023/09/10 02:35:27;;;;;;;3.47;1.27;;;;;;;15.51;100.00;101815.75;2079923;28;20195;-68
2023/09/10 02:36:28;;;;;;;1.77;0.90;;;;;;;15.54;100.00;101840.03;2080009;28;20696;-68
2023/09/10 02:37:30;;;;;;;0.90;0.80;;;;;;;15.56;100.00;101825.59;2072368;28;20183;-67
2023/09/10 02:38:31;;;;;;;1.80;1.00;;;;;;;15.57;100.00;101816.03;2072558;28;20415;-68
2023/09/10 02:39:32;;;;;;;1.63;1.00;;;;;;;15.15;100.00;101758.38;2072768;28;20416;-68
2023/09/10 02:40:32;;;;;;;1.77;1.03;;;;;;;15.62;100.00;101833.03;2072301;28;20243;-67
2023/09/10 02:41:33;;;;;;;2.40;1.10;;;;;;;15.64;100.00;101830.59;2078824;28;20193;-67
2023/09/10 02:42:33;;;;;;;1.27;1.13;;;;;;;15.66;100.00;101822.53;2075404;28;20254;-67
2023/09/10 02:43:33;;;;;;;1.67;1.20;;;;;;;15.67;100.00;101826.13;2075986;28;20330;-67
2023/09/10 02:44:34;;;;;;;1.40;0.93;;;;;;;15.70;100.00;101828.03;2077982;28;20641;-67
2023/09/10 02:45:34;;;;;;;3.13;1.20;;;;;;;15.68;100.00;101825.69;2072512;28;20340;-67
2023/09/10 02:46:35;;;;;;;4.50;1.83;;;;;;;15.70;100.00;101828.84;2072248;28;20178;-67
2023/09/10 02:47:35;;;;;;;1.30;0.90;;;;;;;15.72;100.00;101834.00;2072727;28;20185;-67
2023/09/10 02:48:35;;;;;;;2.47;1.40;;;;;;;15.73;100.00;101825.16;2072516;28;20599;-67
2023/09/10 02:49:36;;;;;;;1.67;1.07;;;;;;;15.73;100.00;101827.94;2074429;28;20210;-67
2023/09/10 02:50:36;;;;;;;2.47;0.87;;;;;;;15.74;100.00;101825.94;2080340;28;20182;-67
2023/09/10 02:51:37;;;;;;;1.60;0.90;;;;;;;15.72;100.00;101820.78;2080448;28;20335;-67
2023/09/10 02:52:37;;;;;;;2.03;1.13;;;;;;;15.66;100.00;101819.75;2078019;28;20228;-68
2023/09/10 02:53:37;;;;;;;1.97;1.30;;;;;;;15.70;100.00;101828.03;2072439;28;20176;-68
2023/09/10 02:54:38;;;;;;;1.43;1.00;;;;;;;15.69;100.00;101834.84;2072490;28;20588;-68
2023/09/10 02:55:38;;;;;;;1.57;1.20;;;;;;;15.69;100.00;101829.28;2072626;28;20682;-68
2023/09/10 02:56:39;;;;;;;1.70;1.10;;;;;;;15.63;100.00;101826.22;2072462;28;20672;-68
2023/09/10 02:57:39;;;;;;;1.87;1.00;;;;;;;15.59;100.00;101822.75;2071856;28;20192;-68
2023/09/10 02:58:40;;;;;;;3.03;1.27;;;;;;;15.51;100.00;101815.75;2072344;28;20196;-68
2023/09/10 02:59:40;;;;;;;2.07;1.10;;;;;;;15.65;100.00;101834.16;2072468;28;20242;-67
2023/09/10 03:00:41;;;;;;;2.17;1.20;;;;;;;15.67;100.00;101837.31;2074794;28;20271;-68
2023/09/10 03:01:41;;;;;;;2.40;1.33;;;;;;;15.67;100.00;101831.72;2078838;28;20256;-68
2023/09/10 03:02:41;;;;;;;3.93;1.20;;;;;;;15.64;100.00;101830.59;2072735;28;20200;-68
2023/09/10 03:03:42;;;;;;;1.90;1.07;;;;;;;15.66;100.00;101835.72;2080689;28;20219;-68
2023/09/10 03:04:42;;;;;;;1.20;0.80;;;;;;;15.63;100.00;101831.03;2073164;28;20185;-68
2023/09/10 03:05:43;;;;;;;1.47;0.87;;;;;;;15.63;100.00;101839.41;2078631;28;20207;-68
2023/09/10 03:06:44;;;;;;;1.43;0.97;;;;;;;14.65;100.00;101682.66;2075434;28;20194;-67
2023/09/10 03:07:44;;;;;;;1.60;1.03;;;;;;;15.58;100.00;101837.13;2076298;28;20255;-67
2023/09/10 03:08:45;;;;;;;1.80;1.10;;;;;;;15.21;100.00;101773.41;2077721;28;20542;-68
2023/09/10 03:09:45;;;;;;;1.77;1.27;;;;;;;15.47;100.00;101829.00;2074030;28;20177;-68
2023/09/10 03:10:46;;;;;;;2.50;1.40;;;;;;;15.49;100.00;101836.97;2079503;28;20181;-67
2023/09/10 03:11:46;;;;;;;2.43;1.17;;;;;;;15.46;100.00;101837.81;2072130;28;20184;-67
2023/09/10 03:12:46;;;;;;;2.10;1.20;;;;;;;15.42;100.00;101845.53;2080118;28;20185;-67
2023/09/10 03:13:47;;;;;;;1.73;1.10;;;;;;;15.39;100.00;101851.97;2080310;28;20556;-67
2023/09/10 03:14:47;;;;;;;1.63;1.20;;;;;;;15.34;100.00;101847.72;2080567;28;20206;-67
2023/09/10 03:15:48;;;;;;;3.30;1.27;;;;;;;15.36;100.00;101855.66;2080334;28;20181;-67
2023/09/10 03:16:49;;;;;;;1.73;1.00;;;;;;;15.31;100.00;101845.75;2080450;28;20709;-67
2023/09/10 03:17:49;;;;;;;1.83;1.13;;;;;;;15.26;100.00;101837.88;2078490;28;20177;-67
2023/09/10 03:18:49;;;;;;;1.60;1.00;;;;;;;15.30;100.00;101846.16;2073067;28;20173;-67
2023/09/10 03:19:50;;;;;;;4.87;1.40;;;;;;;15.29;100.00;101858.56;2080518;28;20205;-67
2023/09/10 03:20:50;;;;;;;3.60;1.57;;;;;;;15.29;100.00;101850.19;2083029;28;20184;-68
2023/09/10 03:21:51;;;;;;;4.00;1.63;;;;;;;15.24;100.00;101857.09;2081708;28;20216;-68
2023/09/10 03:22:57;;;;;;;3.47;1.10;;;;;;;15.26;100.00;101849.06;2075015;28;20584;-67
2023/09/10 03:23:58;;;;;;;2.93;1.70;;;;;;;15.25;100.00;101857.84;2072367;28;20190;-67
2023/09/10 03:24:58;;;;;;;3.67;1.70;;;;;;;15.25;100.00;101861.44;2076373;28;20963;-67
2023/09/10 03:25:58;;;;;;;2.67;1.47;;;;;;;15.23;100.00;101852.72;2082456;28;20242;-67
2023/09/10 03:26:59;;;;;;;2.70;1.20;;;;;;;15.23;100.00;101849.94;2073614;28;20554;-68
2023/09/10 03:27:59;;;;;;;3.13;1.30;;;;;;;15.23;100.00;101858.31;2079992;28;20684;-67
2023/09/10 03:29:00;;;;;;;3.83;1.77;;;;;;;15.22;100.00;101848.34;2072344;28;20181;-67
2023/09/10 03:30:01;;;;;;;2.70;1.00;;;;;;;15.23;100.00;101855.53;2072244;28;20189;-67
2023/09/10 03:31:03;;;;;;;1.53;1.00;;;;;;;15.18;100.00;101858.84;2072077;28;20186;-67
2023/09/10 03:32:08;;;;;;;2.47;1.30;;;;;;;14.41;100.00;101746.16;2077607;28;20834;-67
2023/09/10 03:33:08;;;;;;;2.97;1.37;;;;;;;15.10;100.00;101868.56;2080542;28;20847;-67
2023/09/10 03:34:08;;;;;;;4.43;0.97;;;;;;;15.12;100.00;101868.91;2080339;28;20436;-67
2023/09/10 03:35:11;;;;;;;2.17;0.93;;;;;;;15.08;100.00;101873.03;2080351;28;20623;-67
2023/09/10 03:36:11;;;;;;;5.67;1.10;;;;;;;15.01;100.00;101862.78;2079619;28;20215;-67
2023/09/10 03:37:12;;;;;;;2.53;1.40;;;;;;;15.06;100.00;101870.66;2080484;28;20920;-67
2023/09/10 03:38:12;;;;;;;3.10;1.47;;;;;;;15.06;100.00;101881.06;2080635;28;20181;-67
2023/09/10 03:39:12;;;;;;;4.17;1.30;;;;;;;15.06;100.00;101875.47;2080617;28;20185;-67
2023/09/10 03:40:14;;;;;;;1.30;0.90;;;;;;;14.78;100.00;101829.44;2079471;28;20192;-67
2023/09/10 03:41:14;;;;;;;1.80;1.10;;;;;;;15.08;100.00;101870.22;2075224;28;20262;-67
2023/09/10 03:42:16;;;;;;;1.47;0.87;;;;;;;15.10;100.00;101873.38;2072213;28;20523;-67
2023/09/10 03:43:17;;;;;;;2.73;1.17;;;;;;;15.12;100.00;101860.53;2075180;28;20736;-67
2023/09/10 03:44:18;;;;;;;1.67;0.90;;;;;;;15.13;100.00;101869.72;2078424;28;20471;-67
2023/09/10 03:45:18;;;;;;;1.57;1.00;;;;;;;15.13;100.00;101869.72;2072323;28;20648;-68
2023/09/10 03:46:18;;;;;;;1.10;0.77;;;;;;;14.54;100.00;101777.75;2072227;28;20792;-67
2023/09/10 03:47:19;;;;;;;5.90;1.40;;;;;;;15.14;100.00;101872.09;2072297;28;20213;-67
2023/09/10 03:48:20;;;;;;;2.23;1.27;;;;;;;15.11;100.00;101878.53;2078874;28;20192;-67
2023/09/10 03:49:21;;;;;;;1.53;0.93;;;;;;;14.92;100.00;101845.06;2075179;28;20678;-67
2023/09/10 03:50:21;;;;;;;1.63;1.10;;;;;;;15.17;100.00;101873.22;2075491;28;20338;-67
2023/09/10 03:51:22;;;;;;;2.20;1.20;;;;;;;15.15;100.00;101876.44;2072066;28;20475;-67
2023/09/10 03:52:22;;;;;;;2.50;1.20;;;;;;;15.10;100.00;101873.38;2074235;28;20231;-67
2023/09/10 03:53:22;;;;;;;1.30;0.83;;;;;;;15.06;100.00;101872.69;2079513;28;20213;-67
2023/09/10 03:54:23;;;;;;;2.03;1.20;;;;;;;14.98;100.00;101877.63;2071974;28;20181;-67
2023/09/10 03:55:23;;;;;;;1.87;1.00;;;;;;;14.99;100.00;101878.41;2072416;28;20205;-67
2023/09/10 03:56:25;;;;;;;1.30;1.00;;;;;;;15.02;100.00;101883.13;2073119;28;20242;-67
2023/09/10 03:57:26;;;;;;;1.43;1.00;;;;;;;15.03;100.00;101877.13;2078139;28;20548;-68
2023/09/10 03:58:26;;;;;;;2.13;1.27;;;;;;;15.01;100.00;101879.53;2075626;28;20453;-67
2023/09/10 03:59:26;;;;;;;4.40;1.20;;;;;;;15.04;100.00;101880.69;2072300;28;20615;-67
2023/09/10 04:00:27;;;;;;;1.73;1.10;;;;;;;15.01;100.00;101882.34;2071834;28;20578;-67
2023/09/10 04:01:29;;;;;;;1.93;1.10;;;;;;;15.01;100.00;101879.53;2073628;28;20182;-67
2023/09/10 04:02:30;;;;;;;2.13;1.00;;;;;;;15.05;100.00;101882.25;2081441;28;20232;-67
2023/09/10 04:03:31;;;;;;;1.93;1.17;;;;;;;15.04;100.00;101884.28;2073898;28;20420;-67
2023/09/10 04:04:32;;;;;;;1.37;0.97;;;;;;;15.04;100.00;101895.44;2073700;28;20589;-67
2023/09/10 04:05:32;;;;;;;1.87;1.03;;;;;;;15.03;100.00;101893.88;2073604;28;20186;-67
2023/09/10 04:06:33;;;;;;;2.40;1.17;;;;;;;15.00;100.00;101894.72;2086251;28;20460;-67
2023/09/10 04:07:33;;;;;;;1.53;1.10;;;;;;;14.92;100.00;101884.16;2089408;28;20661;-67
2023/09/10 04:08:34;;;;;;;1.63;1.20;;;;;;;14.68;100.00;101849.97;2081536;28;20580;-67
2023/09/10 04:09:35;;;;;;;2.53;1.40;;;;;;;15.00;100.00;101905.09;2079761;28;20167;-67
2023/09/10 04:10:35;;;;;;;2.67;1.30;;;;;;;14.99;100.00;101904.31;2073375;28;20188;-67
2023/09/10 04:11:36;;;;;;;3.03;1.50;;;;;;;15.02;100.00;101897.84;2073745;28;20177;-67
2023/09/10 04:12:36;;;;;;;2.63;1.47;;;;;;;15.00;100.00;101896.72;2073586;28;20201;-67
2023/09/10 04:13:37;;;;;;;6.57;1.50;;;;;;;14.25;100.00;101784.34;2073605;28;20197;-67
2023/09/10 04:14:37;;;;;;;1.90;1.20;;;;;;;14.97;100.00;101901.16;2079263;28;20673;-67
2023/09/10 04:15:38;;;;;;;1.77;1.20;;;;;;;14.93;100.00;101897.69;2081684;28;20192;-67
2023/09/10 04:16:38;;;;;;;4.83;1.53;;;;;;;14.95;100.00;101894.44;2081635;28;20250;-67
2023/09/10 04:17:39;;;;;;;4.87;1.20;;;;;;;14.93;100.00;101897.69;2081690;28;20786;-67
2023/09/10 04:18:40;;;;;;;1.73;1.00;;;;;;;14.93;100.00;101896.88;2081678;28;20547;-67
2023/09/10 04:19:40;;;;;;;2.20;1.40;;;;;;;14.97;100.00;101901.16;2081893;28;20227;-67
2023/09/10 04:20:41;;;;;;;4.23;1.43;;;;;;;14.98;100.00;101904.75;2073503;28;20519;-67
2023/09/10 04:21:41;;;;;;;2.57;1.13;;;;;;;15.01;100.00;101895.53;2080387;28;20185;-67
2023/09/10 04:22:42;;;;;;;3.17;1.43;;;;;;;15.01;100.00;101901.88;2081510;28;20208;-67
2023/09/10 04:23:42;;;;;;;3.93;1.40;;;;;;;15.08;100.00;101910.13;2081324;28;20200;-68
2023/09/10 04:24:42;;;;;;;2.40;1.37;;;;;;;15.07;100.00;101899.38;2081569;28;20188;-67
2023/09/10 04:25:43;;;;;;;2.50;1.30;;;;;;;15.10;100.00;101896.50;2081517;28;20181;-68
2023/09/10 04:26:43;;;;;;;2.70;1.20;;;;;;;15.05;100.00;101897.00;2081617;28;20608;-68
2023/09/10 04:27:44;;;;;;;2.13;1.20;;;;;;;15.08;100.00;101906.53;2081881;28;20565;-68
2023/09/10 04:28:44;;;;;;;1.53;1.00;;;;;;;15.08;100.00;101906.53;2081842;28;20695;-68
2023/09/10 04:29:44;;;;;;;2.53;1.30;;;;;;;14.10;100.00;101752.38;2081371;28;20367;-67
2023/09/10 04:30:45;;;;;;;1.30;0.90;;;;;;;15.10;100.00;101912.44;2081425;28;20225;-67
2023/09/10 04:31:45;;;;;;;3.03;1.30;;;;;;;15.10;100.00;101901.28;2081373;28;20184;-67
2023/09/10 04:32:46;;;;;;;2.73;1.60;;;;;;;15.09;100.00;101900.50;2078550;28;20259;-67
2023/09/10 04:33:46;;;;;;;1.93;1.07;;;;;;;15.11;100.00;101903.66;2073321;28;20174;-67
2023/09/10 04:34:46;;;;;;;2.00;1.03;;;;;;;15.08;100.00;101906.53;2074359;28;20188;-67
2023/09/10 04:35:49;;;;;;;2.10;1.20;;;;;;;15.06;100.00;101906.94;2081715;28;20173;-67
2023/09/10 04:36:49;;;;;;;2.00;1.10;;;;;;;15.05;100.00;101901.78;2081733;28;20208;-67
2023/09/10 04:37:50;;;;;;;3.17;1.30;;;;;;;15.07;100.00;101902.16;2073705;28;20471;-67
2023/09/10 04:38:50;;;;;;;3.37;1.10;;;;;;;15.10;100.00;101899.28;2073430;28;20206;-67
2023/09/10 04:39:51;;;;;;;2.60;1.67;;;;;;;15.12;100.00;101916.38;2073201;28;20675;-67
2023/09/10 04:40:52;;;;;;;3.30;1.67;;;;;;;15.13;100.00;101914.41;2076654;28;20235;-67
2023/09/10 04:41:52;;;;;;;2.17;1.30;;;;;;;15.16;100.00;101905.94;2081372;28;20476;-67
2023/09/10 04:42:53;;;;;;;2.23;1.60;;;;;;;15.16;100.00;101911.53;2081594;28;20207;-67
2023/09/10 04:43:53;;;;;;;1.20;1.10;;;;;;;15.16;100.00;101919.91;2081195;28;20173;-67